createdAt,value
2019-05-10T00:01:16.095Z,34.40
2019-05-10T00:04:06.333Z,34.28
2019-05-10T00:06:57.036Z,34.27
2019-05-10T00:09:27.710Z,34.27
2019-05-10T00:12:14.868Z,34.32
2019-05-10T00:14:51.768Z,34.23
2019-05-10T00:17:24.604Z,34.32
2019-05-10T00:19:56.396Z,34.32
2019-05-10T00:22:28.282Z,34.26
2019-05-10T00:25:04.291Z,34.26
2019-05-10T00:27:33.593Z,34.23
2019-05-10T00:30:05.796Z,34.23
2019-05-10T00:32:37.408Z,34.24
2019-05-10T00:35:11.196Z,34.23
2019-05-10T00:37:43.395Z,34.16
2019-05-10T00:40:15.041Z,34.13
2019-05-10T00:42:46.686Z,34.13
2019-05-10T00:45:18.345Z,34.18
2019-05-10T00:47:49.680Z,34.18
2019-05-10T00:50:22.154Z,34.20
2019-05-10T00:52:53.889Z,34.20
2019-05-10T00:55:25.861Z,34.27
2019-05-10T00:57:57.911Z,34.33
2019-05-10T01:00:29.466Z,34.47
2019-05-10T01:03:01.018Z,34.47
2019-05-10T01:05:32.858Z,34.73
2019-05-10T01:08:04.807Z,35.02
2019-05-10T01:10:36.552Z,34.72
2019-05-10T01:13:08.481Z,34.95
2019-05-10T01:15:40.373Z,34.96
2019-05-10T01:18:12.198Z,34.90
2019-05-10T01:20:43.979Z,34.96
2019-05-10T01:23:15.893Z,34.82
2019-05-10T01:25:47.437Z,34.81
2019-05-10T01:28:19.639Z,34.81
2019-05-10T01:30:51.535Z,34.75
2019-05-10T01:33:23.276Z,34.82
2019-05-10T01:35:55.021Z,34.82
2019-05-10T01:38:26.890Z,34.83
2019-05-10T01:40:58.925Z,34.84
2019-05-10T01:43:30.634Z,35.15
2019-05-10T01:46:02.592Z,35.31
2019-05-10T01:48:34.314Z,35.36
2019-05-10T01:51:06.022Z,35.56
2019-05-10T01:53:37.825Z,35.58
2019-05-10T01:56:09.869Z,35.58
2019-05-10T01:58:41.752Z,35.60
2019-05-10T02:01:13.566Z,35.36
2019-05-10T02:03:45.329Z,35.36
2019-05-10T02:06:17.357Z,35.89
2019-05-10T02:08:49.124Z,35.89
2019-05-10T02:11:21.721Z,35.91
2019-05-10T02:13:53.605Z,36.14
2019-05-10T02:16:26.376Z,36.14
2019-05-10T02:18:58.085Z,36.32
2019-05-10T02:21:29.608Z,36.32
2019-05-10T02:24:01.759Z,36.44
2019-05-10T02:26:33.218Z,36.58
2019-05-10T02:29:05.324Z,36.87
2019-05-10T02:31:37.299Z,36.87
2019-05-10T02:34:10.389Z,36.93
2019-05-10T02:36:42.096Z,36.91
2019-05-10T02:39:14.086Z,36.91
2019-05-10T02:41:46.344Z,36.76
2019-05-10T02:44:18.192Z,36.85
2019-05-10T02:46:49.684Z,36.93
2019-05-10T02:49:21.857Z,37.21
2019-05-10T02:51:53.503Z,37.21
2019-05-10T02:54:25.423Z,36.91
2019-05-10T02:56:57.528Z,36.95
2019-05-10T02:59:32.705Z,36.64
2019-05-10T03:02:07.073Z,37.26
2019-05-10T03:04:39.137Z,37.26
2019-05-10T03:07:11.370Z,37.39
2019-05-10T03:09:44.910Z,37.70
2019-05-10T03:12:25.329Z,37.89
2019-05-10T03:14:58.514Z,37.75
2019-05-10T03:17:30.499Z,37.84
2019-05-10T03:20:03.003Z,37.90
2019-05-10T03:22:39.884Z,37.90
2019-05-10T03:25:11.948Z,37.88
2019-05-10T03:27:43.499Z,38.15
2019-05-10T03:30:15.853Z,38.15
2019-05-10T03:32:47.554Z,38.23
2019-05-10T03:35:19.338Z,38.27
2019-05-10T03:37:51.252Z,37.87
2019-05-10T03:40:23.284Z,37.63
2019-05-10T03:42:55.121Z,37.46
2019-05-10T03:45:26.540Z,37.01
2019-05-10T03:47:58.533Z,37.00
2019-05-10T03:50:30.360Z,37.00
2019-05-10T03:53:02.529Z,36.72
2019-05-10T03:55:34.323Z,36.76
2019-05-10T03:58:06.124Z,36.37
2019-05-10T04:00:38.159Z,36.37
2019-05-10T04:03:10.093Z,37.40
2019-05-10T04:05:41.623Z,35.65
2019-05-10T04:08:13.250Z,36.32
2019-05-10T04:10:44.889Z,36.32
2019-05-10T04:13:16.577Z,36.05
2019-05-10T04:15:48.806Z,37.00
2019-05-10T04:18:20.584Z,37.51
2019-05-10T04:20:52.444Z,37.31
2019-05-10T04:23:24.097Z,36.79
2019-05-10T04:25:55.727Z,36.74
2019-05-10T04:28:27.960Z,37.50
2019-05-10T04:30:59.858Z,36.11
2019-05-10T04:33:32.024Z,36.11
2019-05-10T04:36:03.572Z,35.85
2019-05-10T04:38:38.560Z,35.85
2019-05-10T04:41:10.613Z,36.95
2019-05-10T04:43:42.171Z,36.95
2019-05-10T04:46:14.093Z,36.45
2019-05-10T04:48:45.947Z,36.52
2019-05-10T04:51:17.805Z,36.52
2019-05-10T04:53:49.766Z,37.29
2019-05-10T04:56:21.427Z,37.23
2019-05-10T04:58:53.177Z,37.23
2019-05-10T05:01:25.405Z,37.87
2019-05-10T05:03:57.069Z,36.98
2019-05-10T05:06:29.059Z,37.74
2019-05-10T05:09:01.029Z,37.74
2019-05-10T05:11:32.916Z,37.52
2019-05-10T05:14:09.082Z,37.52
2019-05-10T05:16:38.215Z,37.94
2019-05-10T05:19:10.247Z,37.36
2019-05-10T05:21:42.232Z,36.93
2019-05-10T05:24:16.842Z,36.93
2019-05-10T05:26:47.823Z,38.05
2019-05-10T05:29:19.961Z,37.78
2019-05-10T05:31:53.995Z,38.74
2019-05-10T05:34:25.932Z,38.74
2019-05-10T05:36:57.825Z,37.65
2019-05-10T05:39:29.543Z,37.63
2019-05-10T05:42:02.327Z,37.66
2019-05-10T05:44:34.014Z,38.42
2019-05-10T05:47:05.787Z,37.77
2019-05-10T05:49:37.815Z,37.26
2019-05-10T05:52:09.391Z,37.67
2019-05-10T05:54:52.895Z,37.80
2019-05-10T05:57:27.457Z,37.70
2019-05-10T06:00:04.138Z,38.48
2019-05-10T06:02:43.971Z,38.48
2019-05-10T06:05:10.966Z,37.67
2019-05-10T06:07:52.570Z,37.67
2019-05-10T06:10:25.003Z,37.97
2019-05-10T06:13:03.312Z,37.97
2019-05-10T06:15:35.420Z,38.11
2019-05-10T06:18:10.146Z,38.11
2019-05-10T06:20:46.707Z,38.42
2019-05-10T06:23:17.952Z,38.22
2019-05-10T06:25:49.803Z,37.84
2019-05-10T06:28:26.838Z,38.28
2019-05-10T06:30:57.516Z,38.28
2019-05-10T06:33:30.913Z,38.47
2019-05-10T06:36:02.306Z,38.32
2019-05-10T06:38:34.078Z,38.32
2019-05-10T06:41:10.167Z,38.39
2019-05-10T06:43:40.622Z,38.52
2019-05-10T06:46:12.381Z,38.52
2019-05-10T06:48:45.153Z,38.62
2019-05-10T06:51:16.655Z,39.38
2019-05-10T06:53:53.595Z,39.38
2019-05-10T06:56:23.035Z,39.04
2019-05-10T06:59:12.273Z,39.06
2019-05-10T07:01:31.792Z,39.44
2019-05-10T07:04:03.315Z,39.44
2019-05-10T07:06:35.216Z,38.92
2019-05-10T07:09:14.724Z,39.61
2019-05-10T07:11:46.448Z,39.61
2019-05-10T07:14:18.166Z,39.21
2019-05-10T07:16:50.157Z,39.21
2019-05-10T07:19:21.844Z,39.33
2019-05-10T07:21:53.619Z,39.58
2019-05-10T07:24:27.101Z,39.58
2019-05-10T07:27:02.108Z,40.20
2019-05-10T07:29:43.774Z,39.92
2019-05-10T07:32:16.546Z,40.23
2019-05-10T07:34:56.069Z,40.23
2019-05-10T07:37:27.645Z,40.42
2019-05-10T07:40:09.507Z,40.33
2019-05-10T07:42:45.530Z,40.36
2019-05-10T07:45:18.730Z,40.36
2019-05-10T07:47:52.276Z,40.77
2019-05-10T07:50:34.563Z,40.69
2019-05-10T07:53:06.606Z,40.69
2019-05-10T07:55:39.860Z,40.61
2019-05-10T07:58:12.297Z,40.61
2019-05-10T08:00:45.043Z,40.79
2019-05-10T08:03:23.935Z,40.89
2019-05-10T08:06:01.800Z,40.89
2019-05-10T08:08:31.228Z,40.74
2019-05-10T08:11:03.255Z,40.63
2019-05-10T08:13:39.337Z,40.49
2019-05-10T08:16:18.915Z,40.48
2019-05-10T08:18:45.274Z,40.38
2019-05-10T08:21:22.429Z,40.71
2019-05-10T08:23:54.091Z,40.77
2019-05-10T08:26:25.926Z,40.66
2019-05-10T08:29:02.171Z,40.66
2019-05-10T08:31:40.325Z,40.45
2019-05-10T08:34:28.806Z,40.66
2019-05-10T08:36:58.699Z,40.66
2019-05-10T08:39:45.657Z,40.72
2019-05-10T08:42:32.127Z,40.72
2019-05-10T08:44:53.745Z,40.63
2019-05-10T08:47:27.683Z,40.73
2019-05-10T08:50:18.664Z,40.65
2019-05-10T08:52:35.921Z,40.26
2019-05-10T08:55:12.114Z,40.26
2019-05-10T08:57:47.765Z,40.65
2019-05-10T09:00:17.478Z,40.45
2019-05-10T09:02:49.211Z,40.54
2019-05-10T09:05:28.826Z,40.40
2019-05-10T09:08:05.624Z,40.40
2019-05-10T09:10:42.155Z,40.28
2019-05-10T09:13:23.331Z,40.68
2019-05-10T09:15:56.985Z,40.57
2019-05-10T09:18:28.888Z,40.59
2019-05-10T09:21:08.474Z,40.59
2019-05-10T09:23:35.911Z,40.61
2019-05-10T09:26:10.579Z,40.65
2019-05-10T09:28:42.141Z,40.99
2019-05-10T09:31:21.360Z,40.95
2019-05-10T09:33:49.592Z,41.07
2019-05-10T09:36:23.058Z,40.94
2019-05-10T09:38:55.483Z,41.05
2019-05-10T09:41:32.806Z,41.10
2019-05-10T09:44:03.013Z,40.91
2019-05-10T09:46:35.814Z,41.14
2019-05-10T09:49:15.530Z,41.31
2019-05-10T09:51:42.260Z,41.36
2019-05-10T09:54:14.204Z,40.63
2019-05-10T09:56:51.745Z,40.81
2019-05-10T09:59:19.113Z,40.65
2019-05-10T10:01:51.010Z,40.91
2019-05-10T10:04:22.929Z,41.02
2019-05-10T10:06:54.796Z,40.87
2019-05-10T10:09:33.852Z,41.08
2019-05-10T10:12:03.100Z,41.08
2019-05-10T10:14:39.340Z,41.24
2019-05-10T10:17:08.295Z,41.30
2019-05-10T10:19:40.739Z,41.30
2019-05-10T10:22:13.241Z,41.33
2019-05-10T10:24:48.932Z,40.91
2019-05-10T10:27:18.619Z,40.83
2019-05-10T10:29:50.358Z,40.83
2019-05-10T10:32:24.655Z,41.11
2019-05-10T10:34:57.679Z,41.16
2019-05-10T10:37:31.288Z,41.16
2019-05-10T10:40:05.379Z,41.17
2019-05-10T10:42:38.083Z,41.11
2019-05-10T10:45:10.188Z,41.15
2019-05-10T10:47:41.885Z,41.02
2019-05-10T10:50:13.907Z,41.02
2019-05-10T10:52:45.471Z,41.07
2019-05-10T10:55:18.706Z,40.93
2019-05-10T10:57:50.848Z,41.06
2019-05-10T11:00:34.772Z,41.06
2019-05-10T11:03:07.216Z,40.91
2019-05-10T11:05:38.809Z,40.92
2019-05-10T11:08:11.461Z,40.91
2019-05-10T11:10:43.163Z,40.91
2019-05-10T11:13:20.509Z,40.95
2019-05-10T11:15:48.476Z,40.84
2019-05-10T11:18:21.615Z,40.84
2019-05-10T11:20:54.192Z,40.85
2019-05-10T11:23:34.249Z,40.85
2019-05-10T11:26:01.333Z,40.81
2019-05-10T11:28:38.664Z,40.73
2019-05-10T11:31:06.826Z,40.77
2019-05-10T11:33:41.134Z,40.75
2019-05-10T11:36:11.934Z,40.75
2019-05-10T11:38:46.976Z,40.79
2019-05-10T11:41:22.054Z,40.62
2019-05-10T11:43:51.409Z,40.62
2019-05-10T11:46:23.406Z,40.61
2019-05-10T11:48:55.229Z,40.60
2019-05-10T11:51:27.166Z,40.60
2019-05-10T11:53:59.800Z,40.64
2019-05-10T11:56:32.239Z,40.37
2019-05-10T11:59:05.416Z,40.61
2019-05-10T12:01:41.466Z,40.56
2019-05-10T12:04:13.157Z,40.61
2019-05-10T12:06:49.889Z,40.61
2019-05-10T12:09:18.162Z,40.58
2019-05-10T12:11:56.455Z,40.49
2019-05-10T12:14:23.342Z,40.56
2019-05-10T12:16:54.954Z,40.56
2019-05-10T12:19:26.429Z,40.51
2019-05-10T12:21:58.461Z,40.42
2019-05-10T12:24:45.281Z,40.40
2019-05-10T12:27:18.590Z,40.40
2019-05-10T12:29:37.466Z,40.40
2019-05-10T12:32:10.420Z,40.35
2019-05-10T12:34:46.020Z,40.35
2019-05-10T12:37:15.784Z,40.22
2019-05-10T12:42:25.357Z,40.22
2019-05-10T12:44:57.018Z,40.14
2019-05-10T12:47:30.969Z,40.14
2019-05-10T12:50:03.531Z,40.05
2019-05-10T12:52:35.653Z,40.07
2019-05-10T12:55:08.126Z,40.07
2019-05-10T12:57:43.168Z,40.06
2019-05-10T13:00:16.007Z,39.95
2019-05-10T13:02:51.860Z,38.70
2019-05-10T13:05:31.297Z,38.70
2019-05-10T13:07:55.055Z,38.87
2019-05-10T13:10:26.840Z,38.87
2019-05-10T13:12:58.714Z,38.95
2019-05-10T13:15:31.539Z,38.92
2019-05-10T13:18:04.101Z,38.81
2019-05-10T13:20:36.716Z,38.57
2019-05-10T13:23:10.155Z,38.76
2019-05-10T13:25:44.139Z,39.01
2019-05-10T13:28:15.663Z,39.02
2019-05-10T13:30:47.307Z,38.97
2019-05-10T13:33:28.694Z,38.97
2019-05-10T13:35:56.658Z,38.93
2019-05-10T13:38:25.738Z,38.93
2019-05-10T13:40:57.634Z,38.87
2019-05-10T13:43:29.121Z,38.83
2019-05-10T13:46:00.642Z,38.75
2019-05-10T13:48:32.455Z,38.68
2019-05-10T13:51:03.855Z,38.66
2019-05-10T13:53:37.240Z,38.58
2019-05-10T13:56:09.436Z,38.51
2019-05-10T13:58:41.230Z,38.51
2019-05-10T14:01:14.696Z,38.58
2019-05-10T14:03:53.723Z,38.53
2019-05-10T14:06:19.554Z,38.35
2019-05-10T14:08:52.278Z,38.36
2019-05-10T14:11:23.855Z,38.21
2019-05-10T14:13:55.669Z,38.17
2019-05-10T14:16:27.368Z,38.17
2019-05-10T14:18:59.052Z,38.09
2019-05-10T14:21:30.571Z,38.08
2019-05-10T14:24:02.263Z,38.08
2019-05-10T14:26:34.334Z,38.13
2019-05-10T14:29:05.903Z,37.94
2019-05-10T14:31:37.635Z,37.94
2019-05-10T14:34:16.205Z,37.94
2019-05-10T14:36:43.529Z,37.92
2019-05-10T14:39:15.233Z,37.92
2019-05-10T14:41:50.714Z,37.93
2019-05-10T14:44:20.506Z,37.78
2019-05-10T14:46:51.850Z,37.78
2019-05-10T14:49:23.204Z,37.81
2019-05-10T14:51:59.019Z,37.72
2019-05-10T14:54:42.293Z,37.72
2019-05-10T14:57:01.847Z,37.76
2019-05-10T14:59:33.567Z,37.76
2019-05-10T15:02:05.179Z,37.71
2019-05-10T15:04:46.422Z,37.70
2019-05-10T15:07:14.494Z,37.70
2019-05-10T15:09:43.779Z,37.68
2019-05-10T15:12:16.368Z,37.76
2019-05-10T15:14:48.871Z,37.76
2019-05-10T15:17:20.621Z,37.66
2019-05-10T15:19:57.380Z,37.66
2019-05-10T15:22:25.977Z,37.65
2019-05-10T15:24:57.688Z,37.65
2019-05-10T15:27:29.555Z,37.65
2019-05-10T15:30:05.194Z,37.65
2019-05-10T15:32:34.032Z,37.60
2019-05-10T15:35:09.012Z,37.65
2019-05-10T15:37:45.487Z,37.65
2019-05-10T15:40:14.490Z,37.65
2019-05-10T15:42:45.961Z,37.69
2019-05-10T15:45:19.489Z,37.66
2019-05-10T15:47:52.325Z,37.68
2019-05-10T15:50:24.939Z,37.73
2019-05-10T15:52:56.684Z,37.66
2019-05-10T15:55:28.901Z,37.71
2019-05-10T15:58:01.577Z,37.69
2019-05-10T16:00:39.202Z,37.54
2019-05-10T16:03:07.094Z,37.50
2019-05-10T16:05:43.586Z,37.51
2019-05-10T16:08:13.750Z,37.51
2019-05-10T16:10:46.282Z,37.51
2019-05-10T16:13:23.427Z,37.58
2019-05-10T16:15:51.639Z,37.43
2019-05-10T16:18:23.990Z,37.43
2019-05-10T16:20:55.515Z,37.40
2019-05-10T16:23:26.980Z,37.39
2019-05-10T16:25:58.650Z,37.40
2019-05-10T16:28:30.740Z,37.34
2019-05-10T16:31:02.391Z,37.34
2019-05-10T16:33:33.813Z,37.22
2019-05-10T16:36:08.270Z,37.26
2019-05-10T16:38:38.863Z,37.27
2019-05-10T16:41:10.242Z,37.31
2019-05-10T16:43:41.792Z,37.23
2019-05-10T16:46:13.266Z,37.24
2019-05-10T16:48:44.837Z,37.06
2019-05-10T16:51:16.452Z,37.03
2019-05-10T16:53:47.919Z,37.06
2019-05-10T16:56:21.241Z,37.01
2019-05-10T16:58:58.943Z,36.92
2019-05-10T17:01:29.100Z,36.78
2019-05-10T17:04:01.843Z,36.78
2019-05-10T17:06:35.330Z,36.73
2019-05-10T17:09:27.774Z,37.11
2019-05-10T17:11:59.392Z,37.50
2019-05-10T17:14:30.968Z,37.59
2019-05-10T17:17:02.603Z,37.59
2019-05-10T17:19:36.105Z,37.63
2019-05-10T17:22:07.895Z,37.63
2019-05-10T17:24:39.296Z,37.55
2019-05-10T17:27:10.979Z,37.36
2019-05-10T17:29:44.650Z,37.19
2019-05-10T17:32:18.548Z,37.19
2019-05-10T17:34:49.630Z,36.92
2019-05-10T17:37:21.225Z,36.92
2019-05-10T17:39:53.746Z,36.65
2019-05-10T17:42:25.535Z,36.65
2019-05-10T17:45:01.805Z,36.74
2019-05-10T17:47:32.359Z,36.74
2019-05-10T17:50:11.568Z,36.63
2019-05-10T17:52:43.412Z,36.53
2019-05-10T17:55:16.760Z,36.44
2019-05-10T17:57:54.351Z,36.53
2019-05-10T18:00:42.666Z,36.39
2019-05-10T18:03:14.212Z,36.13
2019-05-10T18:05:46.688Z,36.13
2019-05-10T18:08:19.370Z,36.14
2019-05-10T18:10:51.113Z,36.09
2019-05-10T18:13:22.464Z,35.90
2019-05-10T18:15:55.021Z,35.90
2019-05-10T18:18:26.687Z,35.85
2019-05-10T18:21:00.702Z,35.62
2019-05-10T18:23:32.564Z,35.77
2019-05-10T18:26:04.126Z,35.71
2019-05-10T18:28:36.831Z,35.58
2019-05-10T18:31:08.905Z,35.50
2019-05-10T18:33:44.260Z,35.50
2019-05-10T18:36:13.965Z,35.19
2019-05-10T18:38:45.607Z,35.32
2019-05-10T18:41:17.356Z,35.32
2019-05-10T18:43:48.820Z,34.69
2019-05-10T18:46:20.437Z,34.86
2019-05-10T18:48:51.814Z,34.97
2019-05-10T18:51:24.545Z,34.84
2019-05-10T18:53:57.858Z,34.84
2019-05-10T18:56:31.425Z,34.81
2019-05-10T18:59:07.542Z,34.77
2019-05-10T19:01:38.647Z,34.81
2019-05-10T19:04:14.029Z,34.81
2019-05-10T19:06:49.561Z,34.69
2019-05-10T19:09:17.527Z,34.36
2019-05-10T19:11:49.399Z,34.57
2019-05-10T19:14:23.944Z,34.44
2019-05-10T19:16:54.136Z,34.41
2019-05-10T19:19:25.858Z,34.16
2019-05-10T19:21:57.724Z,34.16
2019-05-10T19:24:30.494Z,34.37
2019-05-10T19:27:07.304Z,34.73
2019-05-10T19:29:38.876Z,34.73
2019-05-10T19:32:11.651Z,33.99
2019-05-10T19:34:42.465Z,34.09
2019-05-10T19:37:28.451Z,34.09
2019-05-10T19:39:48.075Z,34.02
2019-05-10T19:42:22.495Z,34.04
2019-05-10T19:44:53.999Z,34.17
2019-05-10T19:47:25.979Z,34.17
2019-05-10T19:49:57.579Z,34.02
2019-05-10T19:52:29.120Z,33.82
2019-05-10T19:55:01.685Z,33.67
2019-05-10T19:57:33.406Z,33.78
2019-05-10T20:00:04.918Z,33.38
2019-05-10T20:02:36.454Z,33.38
2019-05-10T20:05:11.212Z,33.51
2019-05-10T20:07:46.244Z,33.59
2019-05-10T20:10:16.362Z,33.66
2019-05-10T20:12:47.955Z,33.68
2019-05-10T20:15:21.398Z,33.48
2019-05-10T20:17:53.133Z,33.48
2019-05-10T20:20:24.492Z,33.60
2019-05-10T20:22:55.808Z,33.62
2019-05-10T20:25:27.417Z,33.86
2019-05-10T20:27:59.123Z,33.86
2019-05-10T20:30:30.635Z,33.66
2019-05-10T20:33:02.450Z,33.33
2019-05-10T20:35:34.269Z,32.84
2019-05-10T20:38:05.815Z,32.84
2019-05-10T20:40:37.714Z,33.20
2019-05-10T20:43:09.404Z,32.90
2019-05-10T20:45:40.968Z,33.46
2019-05-10T20:48:12.573Z,33.16
2019-05-10T20:50:44.121Z,33.16
2019-05-10T20:53:15.522Z,33.01
2019-05-10T20:55:47.377Z,33.15
2019-05-10T20:58:20.915Z,33.15
2019-05-10T21:00:52.686Z,33.15
2019-05-10T21:03:24.326Z,33.15
2019-05-10T21:05:56.158Z,32.99
2019-05-10T21:08:27.926Z,32.99
2019-05-10T21:10:59.622Z,33.02
2019-05-10T21:13:31.290Z,33.28
2019-05-10T21:16:03.056Z,32.82
2019-05-10T21:18:37.951Z,33.24
2019-05-10T21:21:09.760Z,33.20
2019-05-10T21:23:41.348Z,33.20
2019-05-10T21:26:13.854Z,32.79
2019-05-10T21:28:45.795Z,32.89
2019-05-10T21:31:19.810Z,32.91
2019-05-10T21:34:07.528Z,32.91
2019-05-10T21:36:27.343Z,33.14
2019-05-10T21:38:59.234Z,32.91
2019-05-10T21:41:31.288Z,32.91
2019-05-10T21:44:03.342Z,32.87
2019-05-10T21:46:35.135Z,32.87
2019-05-10T21:49:06.848Z,32.78
2019-05-10T21:51:39.468Z,32.87
2019-05-10T21:54:12.395Z,32.87
2019-05-10T21:56:44.105Z,33.14
2019-05-10T21:59:16.017Z,32.92
2019-05-10T22:01:47.662Z,33.06
2019-05-10T22:04:19.212Z,33.10
2019-05-10T22:06:50.654Z,33.10
2019-05-10T22:09:22.398Z,32.66
2019-05-10T22:11:54.039Z,32.66
2019-05-10T22:14:25.565Z,33.14
2019-05-10T22:16:56.888Z,33.14
2019-05-10T22:19:28.562Z,33.16
2019-05-10T22:22:00.295Z,33.16
2019-05-10T22:24:32.091Z,32.94
2019-05-10T22:27:04.988Z,33.09
2019-05-10T22:29:36.704Z,33.19
2019-05-10T22:32:08.273Z,33.15
2019-05-10T22:34:41.814Z,33.15
2019-05-10T22:37:13.573Z,33.01
2019-05-10T22:39:44.935Z,33.10
2019-05-10T22:42:16.428Z,32.91
2019-05-10T22:44:48.080Z,33.40
2019-05-10T22:47:19.742Z,33.13
2019-05-10T22:49:51.290Z,33.20
2019-05-10T22:52:22.885Z,33.34
2019-05-10T22:54:54.622Z,33.34
2019-05-10T22:57:26.318Z,32.79
2019-05-10T22:59:58.313Z,32.79
2019-05-10T23:02:29.659Z,33.11
2019-05-10T23:05:01.366Z,33.11
2019-05-10T23:07:33.220Z,33.23
2019-05-10T23:10:06.068Z,33.19
2019-05-10T23:12:38.154Z,32.98
2019-05-10T23:15:10.583Z,32.98
2019-05-10T23:17:42.223Z,32.95
2019-05-10T23:20:14.406Z,33.01
2019-05-10T23:22:46.298Z,33.23
2019-05-10T23:25:17.912Z,33.23
2019-05-10T23:27:49.618Z,32.87
2019-05-10T23:30:21.248Z,32.87
2019-05-10T23:32:52.851Z,32.74
2019-05-10T23:35:24.625Z,32.74
2019-05-10T23:37:56.212Z,32.86
2019-05-10T23:40:28.051Z,32.98
2019-05-10T23:42:59.618Z,32.98
2019-05-10T23:45:31.472Z,33.04
2019-05-10T23:48:03.095Z,33.04
2019-05-10T23:50:35.284Z,32.90
2019-05-10T23:53:06.957Z,32.90
2019-05-10T23:55:38.795Z,32.90
2019-05-10T23:58:10.338Z,33.26
